sensor_id;sensor_type;location;lat;lon;timestamp;P1;durP1;ratioP1;P2;durP2;ratioP2
53273;SDS011;39163;52.696;6.758;2024-02-23T00:00:55;1.60;;;0.00;;
53273;SDS011;39163;52.696;6.758;2024-02-23T00:03:21;3.90;;;0.00;;
53273;SDS011;39163;52.696;6.758;2024-02-23T00:05:48;0.80;;;0.00;;
53273;SDS011;39163;52.696;6.758;2024-02-23T00:08:15;1.80;;;0.00;;
53273;SDS011;39163;52.696;6.758;2024-02-23T00:10:42;1.00;;;0.47;;
53273;SDS011;39163;52.696;6.758;2024-02-23T00:13:10;2.50;;;0.10;;
53273;SDS011;39163;52.696;6.758;2024-02-23T00:15:37;2.58;;;0.00;;
53273;SDS011;39163;52.696;6.758;2024-02-23T00:18:04;0.50;;;0.00;;
53273;SDS011;39163;52.696;6.758;2024-02-23T00:20:31;0.82;;;0.00;;
53273;SDS011;39163;52.696;6.758;2024-02-23T00:22:58;3.00;;;0.00;;
53273;SDS011;39163;52.696;6.758;2024-02-23T00:25:25;1.17;;;0.00;;
53273;SDS011;39163;52.696;6.758;2024-02-23T00:27:53;1.00;;;0.00;;
53273;SDS011;39163;52.696;6.758;2024-02-23T00:30:20;0.30;;;0.00;;
53273;SDS011;39163;52.696;6.758;2024-02-23T00:32:47;0.50;;;0.00;;
53273;SDS011;39163;52.696;6.758;2024-02-23T00:35:14;1.20;;;0.00;;
53273;SDS011;39163;52.696;6.758;2024-02-23T00:37:41;0.28;;;0.20;;
53273;SDS011;39163;52.696;6.758;2024-02-23T00:40:09;2.08;;;0.00;;
53273;SDS011;39163;52.696;6.758;2024-02-23T00:42:36;0.55;;;0.10;;
53273;SDS011;39163;52.696;6.758;2024-02-23T00:45:05;0.90;;;0.00;;
53273;SDS011;39163;52.696;6.758;2024-02-23T00:47:33;0.73;;;0.35;;
53273;SDS011;39163;52.696;6.758;2024-02-23T00:50:02;0.90;;;0.00;;
53273;SDS011;39163;52.696;6.758;2024-02-23T00:52:29;0.32;;;0.00;;
53273;SDS011;39163;52.696;6.758;2024-02-23T00:54:57;0.52;;;0.00;;
53273;SDS011;39163;52.696;6.758;2024-02-23T00:57:24;1.33;;;0.00;;
53273;SDS011;39163;52.696;6.758;2024-02-23T00:59:55;0.68;;;0.00;;
53273;SDS011;39163;52.696;6.758;2024-02-23T01:02:23;0.98;;;0.00;;
53273;SDS011;39163;52.696;6.758;2024-02-23T01:04:50;2.05;;;0.00;;
53273;SDS011;39163;52.696;6.758;2024-02-23T01:07:21;0.55;;;0.00;;
53273;SDS011;39163;52.696;6.758;2024-02-23T01:09:48;0.08;;;0.00;;
53273;SDS011;39163;52.696;6.758;2024-02-23T01:12:16;0.88;;;0.00;;
53273;SDS011;39163;52.696;6.758;2024-02-23T01:14:43;1.45;;;0.00;;
53273;SDS011;39163;52.696;6.758;2024-02-23T01:17:10;0.20;;;0.00;;
53273;SDS011;39163;52.696;6.758;2024-02-23T01:19:38;1.02;;;0.00;;
53273;SDS011;39163;52.696;6.758;2024-02-23T01:22:05;0.22;;;0.00;;
53273;SDS011;39163;52.696;6.758;2024-02-23T01:24:32;0.30;;;0.00;;
53273;SDS011;39163;52.696;6.758;2024-02-23T01:26:58;0.22;;;0.00;;
53273;SDS011;39163;52.696;6.758;2024-02-23T01:29:26;0.55;;;0.10;;
53273;SDS011;39163;52.696;6.758;2024-02-23T01:31:53;0.90;;;0.00;;
53273;SDS011;39163;52.696;6.758;2024-02-23T01:34:20;2.95;;;0.93;;
53273;SDS011;39163;52.696;6.758;2024-02-23T01:36:48;3.13;;;0.10;;
53273;SDS011;39163;52.696;6.758;2024-02-23T01:39:15;3.03;;;0.10;;
53273;SDS011;39163;52.696;6.758;2024-02-23T01:41:42;4.10;;;0.20;;
53273;SDS011;39163;52.696;6.758;2024-02-23T01:44:09;5.03;;;0.20;;
53273;SDS011;39163;52.696;6.758;2024-02-23T01:46:37;2.35;;;0.30;;
53273;SDS011;39163;52.696;6.758;2024-02-23T01:49:04;3.35;;;0.13;;
53273;SDS011;39163;52.696;6.758;2024-02-23T01:51:33;5.72;;;0.30;;
53273;SDS011;39163;52.696;6.758;2024-02-23T01:54:02;4.38;;;0.20;;
53273;SDS011;39163;52.696;6.758;2024-02-23T01:56:29;9.98;;;0.47;;
53273;SDS011;39163;52.696;6.758;2024-02-23T01:58:57;6.57;;;0.75;;
53273;SDS011;39163;52.696;6.758;2024-02-23T02:01:25;6.45;;;0.35;;
53273;SDS011;39163;52.696;6.758;2024-02-23T02:03:52;6.75;;;1.45;;
53273;SDS011;39163;52.696;6.758;2024-02-23T02:06:19;7.18;;;0.47;;
53273;SDS011;39163;52.696;6.758;2024-02-23T02:08:46;5.50;;;0.70;;
53273;SDS011;39163;52.696;6.758;2024-02-23T02:11:14;14.07;;;2.05;;
53273;SDS011;39163;52.696;6.758;2024-02-23T02:13:41;4.32;;;0.50;;
53273;SDS011;39163;52.696;6.758;2024-02-23T02:16:08;8.45;;;1.10;;
53273;SDS011;39163;52.696;6.758;2024-02-23T02:18:36;12.77;;;1.58;;
53273;SDS011;39163;52.696;6.758;2024-02-23T02:21:03;7.07;;;0.70;;
53273;SDS011;39163;52.696;6.758;2024-02-23T02:23:30;10.35;;;0.85;;
53273;SDS011;39163;52.696;6.758;2024-02-23T02:25:57;9.27;;;1.25;;
53273;SDS011;39163;52.696;6.758;2024-02-23T02:28:26;5.15;;;1.23;;
53273;SDS011;39163;52.696;6.758;2024-02-23T02:30:53;4.85;;;0.82;;
53273;SDS011;39163;52.696;6.758;2024-02-23T02:33:20;3.13;;;1.15;;
53273;SDS011;39163;52.696;6.758;2024-02-23T02:35:47;6.50;;;0.95;;
53273;SDS011;39163;52.696;6.758;2024-02-23T02:38:14;8.68;;;1.35;;
53273;SDS011;39163;52.696;6.758;2024-02-23T02:40:41;5.93;;;0.80;;
53273;SDS011;39163;52.696;6.758;2024-02-23T02:43:09;5.82;;;1.38;;
53273;SDS011;39163;52.696;6.758;2024-02-23T02:45:37;5.63;;;1.00;;
53273;SDS011;39163;52.696;6.758;2024-02-23T02:48:04;7.85;;;0.70;;
53273;SDS011;39163;52.696;6.758;2024-02-23T02:50:31;6.13;;;1.10;;
53273;SDS011;39163;52.696;6.758;2024-02-23T02:52:58;5.25;;;0.50;;
53273;SDS011;39163;52.696;6.758;2024-02-23T02:55:25;4.97;;;0.40;;
53273;SDS011;39163;52.696;6.758;2024-02-23T02:57:52;1.83;;;0.25;;
53273;SDS011;39163;52.696;6.758;2024-02-23T03:00:19;7.28;;;0.40;;
53273;SDS011;39163;52.696;6.758;2024-02-23T03:02:47;2.83;;;0.40;;
53273;SDS011;39163;52.696;6.758;2024-02-23T03:05:14;2.75;;;0.20;;
53273;SDS011;39163;52.696;6.758;2024-02-23T03:07:41;3.00;;;0.32;;
53273;SDS011;39163;52.696;6.758;2024-02-23T03:10:08;8.25;;;0.32;;
53273;SDS011;39163;52.696;6.758;2024-02-23T03:12:35;1.85;;;0.32;;
53273;SDS011;39163;52.696;6.758;2024-02-23T03:15:03;5.18;;;1.13;;
53273;SDS011;39163;52.696;6.758;2024-02-23T03:17:32;4.32;;;0.20;;
53273;SDS011;39163;52.696;6.758;2024-02-23T03:20:00;3.45;;;0.50;;
53273;SDS011;39163;52.696;6.758;2024-02-23T03:22:30;2.80;;;0.25;;
53273;SDS011;39163;52.696;6.758;2024-02-23T03:24:57;4.60;;;0.30;;
53273;SDS011;39163;52.696;6.758;2024-02-23T03:27:27;5.47;;;0.30;;
53273;SDS011;39163;52.696;6.758;2024-02-23T03:29:55;3.03;;;0.40;;
53273;SDS011;39163;52.696;6.758;2024-02-23T03:32:22;7.03;;;0.20;;
53273;SDS011;39163;52.696;6.758;2024-02-23T03:34:49;6.32;;;0.20;;
53273;SDS011;39163;52.696;6.758;2024-02-23T03:37:17;4.05;;;1.17;;
53273;SDS011;39163;52.696;6.758;2024-02-23T03:39:44;6.15;;;1.33;;
53273;SDS011;39163;52.696;6.758;2024-02-23T03:42:11;2.65;;;0.40;;
53273;SDS011;39163;52.696;6.758;2024-02-23T03:44:38;3.45;;;0.30;;
53273;SDS011;39163;52.696;6.758;2024-02-23T03:47:07;2.53;;;0.28;;
53273;SDS011;39163;52.696;6.758;2024-02-23T03:49:34;5.72;;;0.40;;
53273;SDS011;39163;52.696;6.758;2024-02-23T03:52:00;6.72;;;0.40;;
53273;SDS011;39163;52.696;6.758;2024-02-23T03:54:29;4.40;;;0.30;;
53273;SDS011;39163;52.696;6.758;2024-02-23T03:56:56;3.42;;;0.30;;
53273;SDS011;39163;52.696;6.758;2024-02-23T03:59:23;3.22;;;0.43;;
53273;SDS011;39163;52.696;6.758;2024-02-23T04:01:50;6.90;;;0.30;;
53273;SDS011;39163;52.696;6.758;2024-02-23T04:04:17;5.18;;;0.40;;
53273;SDS011;39163;52.696;6.758;2024-02-23T04:06:44;2.25;;;0.47;;
53273;SDS011;39163;52.696;6.758;2024-02-23T04:09:11;4.78;;;0.47;;
53273;SDS011;39163;52.696;6.758;2024-02-23T04:11:39;4.75;;;0.80;;
53273;SDS011;39163;52.696;6.758;2024-02-23T04:14:06;5.30;;;0.68;;
53273;SDS011;39163;52.696;6.758;2024-02-23T04:16:33;5.15;;;0.20;;
53273;SDS011;39163;52.696;6.758;2024-02-23T04:19:00;2.13;;;0.32;;
53273;SDS011;39163;52.696;6.758;2024-02-23T04:21:27;2.05;;;0.20;;
53273;SDS011;39163;52.696;6.758;2024-02-23T04:23:54;5.95;;;0.20;;
53273;SDS011;39163;52.696;6.758;2024-02-23T04:26:21;3.78;;;0.32;;
53273;SDS011;39163;52.696;6.758;2024-02-23T04:28:49;8.18;;;0.40;;
53273;SDS011;39163;52.696;6.758;2024-02-23T04:31:16;3.10;;;0.40;;
53273;SDS011;39163;52.696;6.758;2024-02-23T04:33:43;2.88;;;0.75;;
53273;SDS011;39163;52.696;6.758;2024-02-23T04:36:10;6.93;;;1.35;;
53273;SDS011;39163;52.696;6.758;2024-02-23T04:38:37;7.68;;;1.98;;
53273;SDS011;39163;52.696;6.758;2024-02-23T04:41:04;6.47;;;1.88;;
53273;SDS011;39163;52.696;6.758;2024-02-23T04:43:33;10.95;;;2.58;;
53273;SDS011;39163;52.696;6.758;2024-02-23T04:46:01;14.75;;;2.58;;
53273;SDS011;39163;52.696;6.758;2024-02-23T04:48:28;10.63;;;1.92;;
53273;SDS011;39163;52.696;6.758;2024-02-23T04:50:56;6.55;;;3.00;;
53273;SDS011;39163;52.696;6.758;2024-02-23T04:53:23;8.43;;;2.72;;
53273;SDS011;39163;52.696;6.758;2024-02-23T04:55:50;9.48;;;2.65;;
53273;SDS011;39163;52.696;6.758;2024-02-23T04:58:17;7.55;;;2.10;;
53273;SDS011;39163;52.696;6.758;2024-02-23T05:00:45;8.77;;;1.95;;
53273;SDS011;39163;52.696;6.758;2024-02-23T05:03:14;9.25;;;2.88;;
53273;SDS011;39163;52.696;6.758;2024-02-23T05:05:41;9.23;;;2.10;;
53273;SDS011;39163;52.696;6.758;2024-02-23T05:08:08;11.60;;;2.33;;
53273;SDS011;39163;52.696;6.758;2024-02-23T05:10:35;8.65;;;2.40;;
53273;SDS011;39163;52.696;6.758;2024-02-23T05:13:02;6.68;;;1.70;;
53273;SDS011;39163;52.696;6.758;2024-02-23T05:15:30;14.07;;;2.28;;
53273;SDS011;39163;52.696;6.758;2024-02-23T05:17:57;13.82;;;2.10;;
53273;SDS011;39163;52.696;6.758;2024-02-23T05:20:25;7.18;;;2.40;;
53273;SDS011;39163;52.696;6.758;2024-02-23T05:22:52;10.35;;;2.33;;
53273;SDS011;39163;52.696;6.758;2024-02-23T05:25:19;7.13;;;1.95;;
53273;SDS011;39163;52.696;6.758;2024-02-23T05:27:46;7.72;;;1.85;;
53273;SDS011;39163;52.696;6.758;2024-02-23T05:30:13;5.78;;;1.70;;
53273;SDS011;39163;52.696;6.758;2024-02-23T05:32:40;9.48;;;2.13;;
53273;SDS011;39163;52.696;6.758;2024-02-23T05:35:07;10.45;;;1.88;;
53273;SDS011;39163;52.696;6.758;2024-02-23T05:37:36;5.88;;;1.70;;
53273;SDS011;39163;52.696;6.758;2024-02-23T05:40:03;11.30;;;2.30;;
53273;SDS011;39163;52.696;6.758;2024-02-23T05:42:35;10.18;;;2.17;;
53273;SDS011;39163;52.696;6.758;2024-02-23T05:45:02;9.68;;;2.20;;
53273;SDS011;39163;52.696;6.758;2024-02-23T05:47:33;8.38;;;1.95;;
53273;SDS011;39163;52.696;6.758;2024-02-23T05:50:01;13.32;;;2.85;;
53273;SDS011;39163;52.696;6.758;2024-02-23T05:52:28;11.30;;;2.28;;
53273;SDS011;39163;52.696;6.758;2024-02-23T05:54:57;13.02;;;2.20;;
53273;SDS011;39163;52.696;6.758;2024-02-23T05:57:25;12.18;;;2.35;;
53273;SDS011;39163;52.696;6.758;2024-02-23T05:59:52;10.43;;;2.45;;
53273;SDS011;39163;52.696;6.758;2024-02-23T06:02:20;8.82;;;2.15;;
53273;SDS011;39163;52.696;6.758;2024-02-23T06:04:47;9.32;;;2.67;;
53273;SDS011;39163;52.696;6.758;2024-02-23T06:07:14;7.63;;;2.25;;
53273;SDS011;39163;52.696;6.758;2024-02-23T06:09:41;10.60;;;2.63;;
53273;SDS011;39163;52.696;6.758;2024-02-23T06:12:10;12.77;;;2.78;;
53273;SDS011;39163;52.696;6.758;2024-02-23T06:14:38;13.10;;;2.95;;
53273;SDS011;39163;52.696;6.758;2024-02-23T06:17:05;9.23;;;2.33;;
53273;SDS011;39163;52.696;6.758;2024-02-23T06:19:33;16.33;;;2.72;;
53273;SDS011;39163;52.696;6.758;2024-02-23T06:22:00;8.98;;;2.65;;
53273;SDS011;39163;52.696;6.758;2024-02-23T06:24:27;8.48;;;3.25;;
53273;SDS011;39163;52.696;6.758;2024-02-23T06:26:55;17.77;;;4.80;;
53273;SDS011;39163;52.696;6.758;2024-02-23T06:29:24;9.20;;;3.17;;
53273;SDS011;39163;52.696;6.758;2024-02-23T06:31:51;11.63;;;3.45;;
53273;SDS011;39163;52.696;6.758;2024-02-23T06:34:18;9.35;;;2.63;;
53273;SDS011;39163;52.696;6.758;2024-02-23T06:36:45;10.57;;;3.50;;
53273;SDS011;39163;52.696;6.758;2024-02-23T06:39:12;14.25;;;2.17;;
53273;SDS011;39163;52.696;6.758;2024-02-23T06:41:43;17.40;;;2.97;;
53273;SDS011;39163;52.696;6.758;2024-02-23T06:44:10;10.63;;;2.95;;
53273;SDS011;39163;52.696;6.758;2024-02-23T06:46:38;9.77;;;4.32;;
53273;SDS011;39163;52.696;6.758;2024-02-23T06:49:06;13.65;;;3.72;;
53273;SDS011;39163;52.696;6.758;2024-02-23T06:51:34;15.68;;;3.55;;
53273;SDS011;39163;52.696;6.758;2024-02-23T06:54:00;10.00;;;3.15;;
53273;SDS011;39163;52.696;6.758;2024-02-23T06:56:28;13.85;;;1.77;;
53273;SDS011;39163;52.696;6.758;2024-02-23T06:58:55;9.77;;;2.95;;
53273;SDS011;39163;52.696;6.758;2024-02-23T07:01:22;10.63;;;1.42;;
53273;SDS011;39163;52.696;6.758;2024-02-23T07:03:50;16.05;;;3.70;;
53273;SDS011;39163;52.696;6.758;2024-02-23T07:06:17;10.77;;;2.83;;
53273;SDS011;39163;52.696;6.758;2024-02-23T07:08:44;6.50;;;1.50;;
53273;SDS011;39163;52.696;6.758;2024-02-23T07:11:11;7.90;;;1.27;;
53273;SDS011;39163;52.696;6.758;2024-02-23T07:13:38;6.75;;;2.10;;
53273;SDS011;39163;52.696;6.758;2024-02-23T07:16:09;5.72;;;1.45;;
53273;SDS011;39163;52.696;6.758;2024-02-23T07:18:36;6.88;;;0.77;;
53273;SDS011;39163;52.696;6.758;2024-02-23T07:21:04;14.30;;;2.97;;
53273;SDS011;39163;52.696;6.758;2024-02-23T07:23:31;8.98;;;1.05;;
53273;SDS011;39163;52.696;6.758;2024-02-23T07:25:58;12.35;;;0.82;;
53273;SDS011;39163;52.696;6.758;2024-02-23T07:28:25;5.45;;;0.60;;
53273;SDS011;39163;52.696;6.758;2024-02-23T07:30:52;7.80;;;0.70;;
53273;SDS011;39163;52.696;6.758;2024-02-23T07:33:19;6.72;;;0.63;;
53273;SDS011;39163;52.696;6.758;2024-02-23T07:35:46;4.95;;;0.50;;
53273;SDS011;39163;52.696;6.758;2024-02-23T07:38:14;10.32;;;2.17;;
53273;SDS011;39163;52.696;6.758;2024-02-23T07:40:42;5.50;;;0.68;;
53273;SDS011;39163;52.696;6.758;2024-02-23T07:43:10;4.20;;;1.13;;
53273;SDS011;39163;52.696;6.758;2024-02-23T07:45:37;4.63;;;0.60;;
53273;SDS011;39163;52.696;6.758;2024-02-23T07:48:04;6.15;;;0.82;;
53273;SDS011;39163;52.696;6.758;2024-02-23T07:50:33;8.38;;;0.77;;
53273;SDS011;39163;52.696;6.758;2024-02-23T07:53:01;6.65;;;0.70;;
53273;SDS011;39163;52.696;6.758;2024-02-23T07:55:30;4.82;;;0.43;;
53273;SDS011;39163;52.696;6.758;2024-02-23T07:57:57;5.50;;;0.60;;
53273;SDS011;39163;52.696;6.758;2024-02-23T08:00:26;3.97;;;0.43;;
53273;SDS011;39163;52.696;6.758;2024-02-23T08:02:53;3.42;;;0.47;;
53273;SDS011;39163;52.696;6.758;2024-02-23T08:05:21;9.65;;;1.35;;
53273;SDS011;39163;52.696;6.758;2024-02-23T08:07:49;10.13;;;1.45;;
53273;SDS011;39163;52.696;6.758;2024-02-23T08:10:16;3.88;;;0.55;;
53273;SDS011;39163;52.696;6.758;2024-02-23T08:12:44;7.25;;;1.17;;
53273;SDS011;39163;52.696;6.758;2024-02-23T08:15:12;7.18;;;0.40;;
53273;SDS011;39163;52.696;6.758;2024-02-23T08:17:39;4.50;;;1.38;;
53273;SDS011;39163;52.696;6.758;2024-02-23T08:20:06;7.45;;;0.70;;
53273;SDS011;39163;52.696;6.758;2024-02-23T08:22:34;7.00;;;0.40;;
53273;SDS011;39163;52.696;6.758;2024-02-23T08:25:01;7.38;;;1.02;;
53273;SDS011;39163;52.696;6.758;2024-02-23T08:27:28;5.75;;;0.40;;
53273;SDS011;39163;52.696;6.758;2024-02-23T08:29:56;3.72;;;0.30;;
53273;SDS011;39163;52.696;6.758;2024-02-23T08:32:23;7.82;;;0.22;;
53273;SDS011;39163;52.696;6.758;2024-02-23T08:34:50;5.00;;;0.60;;
53273;SDS011;39163;52.696;6.758;2024-02-23T08:37:18;5.03;;;0.70;;
53273;SDS011;39163;52.696;6.758;2024-02-23T08:39:44;4.10;;;0.30;;
53273;SDS011;39163;52.696;6.758;2024-02-23T08:42:11;6.93;;;0.40;;
53273;SDS011;39163;52.696;6.758;2024-02-23T08:44:38;4.68;;;0.32;;
53273;SDS011;39163;52.696;6.758;2024-02-23T08:47:07;7.30;;;0.38;;
53273;SDS011;39163;52.696;6.758;2024-02-23T08:49:34;6.65;;;0.40;;
53273;SDS011;39163;52.696;6.758;2024-02-23T08:52:01;7.25;;;0.80;;
53273;SDS011;39163;52.696;6.758;2024-02-23T08:54:29;5.10;;;0.70;;
53273;SDS011;39163;52.696;6.758;2024-02-23T08:56:56;8.88;;;0.47;;
53273;SDS011;39163;52.696;6.758;2024-02-23T08:59:23;4.97;;;0.20;;
53273;SDS011;39163;52.696;6.758;2024-02-23T09:01:50;4.30;;;0.65;;
53273;SDS011;39163;52.696;6.758;2024-02-23T09:04:18;4.03;;;0.57;;
53273;SDS011;39163;52.696;6.758;2024-02-23T09:06:45;6.35;;;1.00;;
53273;SDS011;39163;52.696;6.758;2024-02-23T09:09:14;4.35;;;0.65;;
53273;SDS011;39163;52.696;6.758;2024-02-23T09:11:41;4.50;;;0.30;;
53273;SDS011;39163;52.696;6.758;2024-02-23T09:14:08;3.30;;;0.60;;
53273;SDS011;39163;52.696;6.758;2024-02-23T09:16:35;6.78;;;0.40;;
53273;SDS011;39163;52.696;6.758;2024-02-23T09:19:02;6.57;;;0.35;;
53273;SDS011;39163;52.696;6.758;2024-02-23T09:21:30;6.00;;;0.30;;
53273;SDS011;39163;52.696;6.758;2024-02-23T09:23:58;11.43;;;1.65;;
53273;SDS011;39163;52.696;6.758;2024-02-23T09:26:25;5.30;;;0.30;;
53273;SDS011;39163;52.696;6.758;2024-02-23T09:28:52;8.32;;;0.52;;
53273;SDS011;39163;52.696;6.758;2024-02-23T09:31:19;7.50;;;1.30;;
53273;SDS011;39163;52.696;6.758;2024-02-23T09:33:45;5.50;;;0.20;;
53273;SDS011;39163;52.696;6.758;2024-02-23T09:36:14;8.02;;;0.40;;
53273;SDS011;39163;52.696;6.758;2024-02-23T09:38:42;6.40;;;0.30;;
53273;SDS011;39163;52.696;6.758;2024-02-23T09:41:11;6.95;;;0.50;;
53273;SDS011;39163;52.696;6.758;2024-02-23T09:43:45;3.92;;;0.30;;
53273;SDS011;39163;52.696;6.758;2024-02-23T09:46:13;5.18;;;0.47;;
53273;SDS011;39163;52.696;6.758;2024-02-23T09:48:40;8.70;;;0.65;;
53273;SDS011;39163;52.696;6.758;2024-02-23T09:51:08;4.47;;;0.60;;
53273;SDS011;39163;52.696;6.758;2024-02-23T09:53:37;4.47;;;0.30;;
53273;SDS011;39163;52.696;6.758;2024-02-23T09:56:06;5.50;;;0.50;;
53273;SDS011;39163;52.696;6.758;2024-02-23T09:58:35;4.90;;;0.45;;
53273;SDS011;39163;52.696;6.758;2024-02-23T10:01:03;3.95;;;0.63;;
53273;SDS011;39163;52.696;6.758;2024-02-23T10:03:30;3.28;;;0.57;;
53273;SDS011;39163;52.696;6.758;2024-02-23T10:05:57;4.57;;;0.60;;
53273;SDS011;39163;52.696;6.758;2024-02-23T10:08:26;6.45;;;0.43;;
53273;SDS011;39163;52.696;6.758;2024-02-23T10:10:54;7.03;;;0.50;;
53273;SDS011;39163;52.696;6.758;2024-02-23T10:13:23;7.22;;;0.40;;
53273;SDS011;39163;52.696;6.758;2024-02-23T10:15:50;5.50;;;0.55;;
53273;SDS011;39163;52.696;6.758;2024-02-23T10:18:17;7.15;;;0.40;;
53273;SDS011;39163;52.696;6.758;2024-02-23T10:20:45;5.13;;;1.10;;
53273;SDS011;39163;52.696;6.758;2024-02-23T10:23:12;9.27;;;0.40;;
53273;SDS011;39163;52.696;6.758;2024-02-23T10:25:39;8.38;;;0.68;;
53273;SDS011;39163;52.696;6.758;2024-02-23T10:28:06;2.90;;;0.20;;
53273;SDS011;39163;52.696;6.758;2024-02-23T10:30:36;5.13;;;0.40;;
53273;SDS011;39163;52.696;6.758;2024-02-23T10:33:04;6.32;;;0.30;;
53273;SDS011;39163;52.696;6.758;2024-02-23T10:35:32;3.67;;;0.75;;
53273;SDS011;39163;52.696;6.758;2024-02-23T10:38:03;3.47;;;0.47;;
53273;SDS011;39163;52.696;6.758;2024-02-23T10:40:31;7.28;;;0.40;;
53273;SDS011;39163;52.696;6.758;2024-02-23T10:43:02;5.63;;;0.40;;
53273;SDS011;39163;52.696;6.758;2024-02-23T10:45:32;7.38;;;0.63;;
53273;SDS011;39163;52.696;6.758;2024-02-23T10:48:03;5.63;;;0.50;;
53273;SDS011;39163;52.696;6.758;2024-02-23T10:50:30;5.82;;;0.60;;
53273;SDS011;39163;52.696;6.758;2024-02-23T10:52:57;6.43;;;0.55;;
53273;SDS011;39163;52.696;6.758;2024-02-23T10:55:26;5.07;;;0.60;;
53273;SDS011;39163;52.696;6.758;2024-02-23T10:57:55;3.92;;;0.45;;
53273;SDS011;39163;52.696;6.758;2024-02-23T11:00:24;4.70;;;0.40;;
53273;SDS011;39163;52.696;6.758;2024-02-23T11:02:52;4.90;;;0.80;;
53273;SDS011;39163;52.696;6.758;2024-02-23T11:05:22;2.63;;;0.30;;
53273;SDS011;39163;52.696;6.758;2024-02-23T11:07:49;6.65;;;0.80;;
53273;SDS011;39163;52.696;6.758;2024-02-23T11:10:17;3.90;;;0.60;;
53273;SDS011;39163;52.696;6.758;2024-02-23T11:12:56;4.18;;;0.40;;
53273;SDS011;39163;52.696;6.758;2024-02-23T11:15:28;3.20;;;0.30;;
53273;SDS011;39163;52.696;6.758;2024-02-23T11:17:58;8.32;;;0.30;;
53273;SDS011;39163;52.696;6.758;2024-02-23T11:20:35;3.00;;;0.55;;
53273;SDS011;39163;52.696;6.758;2024-02-23T11:23:12;4.53;;;0.25;;
53273;SDS011;39163;52.696;6.758;2024-02-23T11:25:40;5.95;;;0.40;;
53273;SDS011;39163;52.696;6.758;2024-02-23T11:28:07;3.35;;;0.30;;
53273;SDS011;39163;52.696;6.758;2024-02-23T11:30:34;4.28;;;0.30;;
53273;SDS011;39163;52.696;6.758;2024-02-23T11:33:01;7.25;;;0.55;;
53273;SDS011;39163;52.696;6.758;2024-02-23T11:35:28;7.32;;;0.30;;
53273;SDS011;39163;52.696;6.758;2024-02-23T11:37:56;5.30;;;0.30;;
53273;SDS011;39163;52.696;6.758;2024-02-23T11:40:25;8.98;;;1.23;;
53273;SDS011;39163;52.696;6.758;2024-02-23T11:42:54;6.00;;;0.40;;
53273;SDS011;39163;52.696;6.758;2024-02-23T11:45:21;4.45;;;0.20;;
53273;SDS011;39163;52.696;6.758;2024-02-23T11:47:48;6.25;;;0.63;;
53273;SDS011;39163;52.696;6.758;2024-02-23T11:50:15;3.85;;;0.20;;
53273;SDS011;39163;52.696;6.758;2024-02-23T11:52:45;8.57;;;0.30;;
53273;SDS011;39163;52.696;6.758;2024-02-23T11:55:13;3.38;;;0.28;;
53273;SDS011;39163;52.696;6.758;2024-02-23T11:57:47;4.70;;;0.13;;
53273;SDS011;39163;52.696;6.758;2024-02-23T12:00:14;3.63;;;0.30;;
53273;SDS011;39163;52.696;6.758;2024-02-23T12:02:43;5.90;;;1.02;;
53273;SDS011;39163;52.696;6.758;2024-02-23T12:05:10;6.03;;;0.43;;
53273;SDS011;39163;52.696;6.758;2024-02-23T12:07:37;3.15;;;0.30;;
53273;SDS011;39163;52.696;6.758;2024-02-23T12:10:05;6.40;;;0.32;;
53273;SDS011;39163;52.696;6.758;2024-02-23T12:12:34;7.82;;;0.80;;
53273;SDS011;39163;52.696;6.758;2024-02-23T12:15:01;3.95;;;0.50;;
53273;SDS011;39163;52.696;6.758;2024-02-23T12:17:28;6.05;;;1.02;;
53273;SDS011;39163;52.696;6.758;2024-02-23T12:19:57;7.28;;;0.47;;
53273;SDS011;39163;52.696;6.758;2024-02-23T12:22:25;5.45;;;0.50;;
53273;SDS011;39163;52.696;6.758;2024-02-23T12:24:52;4.28;;;0.63;;
53273;SDS011;39163;52.696;6.758;2024-02-23T12:27:19;7.50;;;0.40;;
53273;SDS011;39163;52.696;6.758;2024-02-23T12:29:52;2.35;;;0.40;;
53273;SDS011;39163;52.696;6.758;2024-02-23T12:32:19;4.40;;;0.50;;
53273;SDS011;39163;52.696;6.758;2024-02-23T12:34:47;3.17;;;0.50;;
53273;SDS011;39163;52.696;6.758;2024-02-23T12:37:14;5.22;;;0.30;;
53273;SDS011;39163;52.696;6.758;2024-02-23T12:39:41;6.95;;;0.70;;
53273;SDS011;39163;52.696;6.758;2024-02-23T12:42:08;7.18;;;0.40;;
53273;SDS011;39163;52.696;6.758;2024-02-23T12:44:35;3.45;;;0.40;;
53273;SDS011;39163;52.696;6.758;2024-02-23T12:47:04;7.88;;;2.05;;
53273;SDS011;39163;52.696;6.758;2024-02-23T12:49:31;4.43;;;0.50;;
53273;SDS011;39163;52.696;6.758;2024-02-23T12:51:58;4.80;;;1.02;;
53273;SDS011;39163;52.696;6.758;2024-02-23T12:54:25;2.95;;;0.30;;
53273;SDS011;39163;52.696;6.758;2024-02-23T12:56:52;5.30;;;0.30;;
53273;SDS011;39163;52.696;6.758;2024-02-23T12:59:19;4.57;;;0.20;;
53273;SDS011;39163;52.696;6.758;2024-02-23T13:01:45;4.22;;;0.80;;
53273;SDS011;39163;52.696;6.758;2024-02-23T13:04:14;1.70;;;0.30;;
53273;SDS011;39163;52.696;6.758;2024-02-23T13:06:41;3.03;;;0.38;;
53273;SDS011;39163;52.696;6.758;2024-02-23T13:09:08;4.15;;;0.40;;
53273;SDS011;39163;52.696;6.758;2024-02-23T13:11:36;1.33;;;0.25;;
53273;SDS011;39163;52.696;6.758;2024-02-23T13:14:04;3.78;;;0.20;;
53273;SDS011;39163;52.696;6.758;2024-02-23T13:16:31;6.72;;;0.38;;
53273;SDS011;39163;52.696;6.758;2024-02-23T13:18:58;4.80;;;0.30;;
53273;SDS011;39163;52.696;6.758;2024-02-23T13:21:26;5.07;;;0.30;;
53273;SDS011;39163;52.696;6.758;2024-02-23T13:23:54;5.13;;;0.77;;
53273;SDS011;39163;52.696;6.758;2024-02-23T13:26:21;5.32;;;0.38;;
53273;SDS011;39163;52.696;6.758;2024-02-23T13:28:48;2.50;;;0.32;;
53273;SDS011;39163;52.696;6.758;2024-02-23T13:31:14;2.03;;;0.30;;
53273;SDS011;39163;52.696;6.758;2024-02-23T13:33:42;3.30;;;0.30;;
53273;SDS011;39163;52.696;6.758;2024-02-23T13:36:10;2.22;;;0.20;;
53273;SDS011;39163;52.696;6.758;2024-02-23T13:38:38;3.22;;;0.30;;
53273;SDS011;39163;52.696;6.758;2024-02-23T13:41:06;4.95;;;0.80;;
53273;SDS011;39163;52.696;6.758;2024-02-23T13:43:33;4.15;;;0.35;;
53273;SDS011;39163;52.696;6.758;2024-02-23T13:46:00;4.97;;;0.22;;
53273;SDS011;39163;52.696;6.758;2024-02-23T13:48:29;3.20;;;0.50;;
53273;SDS011;39163;52.696;6.758;2024-02-23T13:50:56;4.00;;;0.40;;
53273;SDS011;39163;52.696;6.758;2024-02-23T13:53:28;5.40;;;0.45;;
53273;SDS011;39163;52.696;6.758;2024-02-23T13:55:56;2.85;;;0.20;;
53273;SDS011;39163;52.696;6.758;2024-02-23T13:58:23;4.20;;;0.40;;
53273;SDS011;39163;52.696;6.758;2024-02-23T14:00:50;4.28;;;0.32;;
53273;SDS011;39163;52.696;6.758;2024-02-23T14:03:17;5.15;;;0.30;;
53273;SDS011;39163;52.696;6.758;2024-02-23T14:05:44;4.78;;;0.40;;
53273;SDS011;39163;52.696;6.758;2024-02-23T14:08:12;9.32;;;1.25;;
53273;SDS011;39163;52.696;6.758;2024-02-23T14:10:39;5.13;;;0.50;;
53273;SDS011;39163;52.696;6.758;2024-02-23T14:13:09;5.32;;;1.05;;
53273;SDS011;39163;52.696;6.758;2024-02-23T14:15:36;6.65;;;1.00;;
53273;SDS011;39163;52.696;6.758;2024-02-23T14:18:03;4.78;;;0.95;;
53273;SDS011;39163;52.696;6.758;2024-02-23T14:20:31;5.28;;;0.43;;
53273;SDS011;39163;52.696;6.758;2024-02-23T14:22:58;4.85;;;0.30;;
53273;SDS011;39163;52.696;6.758;2024-02-23T14:25:25;6.70;;;2.22;;
53273;SDS011;39163;52.696;6.758;2024-02-23T14:27:52;9.82;;;3.58;;
53273;SDS011;39163;52.696;6.758;2024-02-23T14:30:22;3.60;;;0.50;;
53273;SDS011;39163;52.696;6.758;2024-02-23T14:32:49;5.22;;;1.15;;
53273;SDS011;39163;52.696;6.758;2024-02-23T14:35:16;6.63;;;2.65;;
53273;SDS011;39163;52.696;6.758;2024-02-23T14:37:43;6.00;;;1.10;;
53273;SDS011;39163;52.696;6.758;2024-02-23T14:40:10;4.63;;;0.30;;
53273;SDS011;39163;52.696;6.758;2024-02-23T14:42:39;5.82;;;0.22;;
53273;SDS011;39163;52.696;6.758;2024-02-23T14:45:06;3.05;;;0.28;;
53273;SDS011;39163;52.696;6.758;2024-02-23T14:47:35;4.13;;;0.43;;